This is the latest recevied weather packets stored in our database for station/object KE5OYL. If no packets are shown the sender has not sent any weather packets the latest 10 day(s).
| Time | Temp. | Humidity | Pressure | Rain* | Wind** | Luminosity | Snow |
|---|---|---|---|---|---|---|---|
| 1777475781 | 16.11° C | 79% | 1016.9 hPa | 0 mm | - | 30 W/m² | - |
| 1777475478 | 15.56° C | 79% | 1016.3 hPa | 0 mm | - | 53 W/m² | - |
| 1777475174 | 16.11° C | 79% | 1016.6 hPa | 0 mm | - | 42 W/m² | - |
| 1777474870 | 16.11° C | 79% | 1016.4 hPa | 0 mm | - | 45 W/m² | - |
| 1777474566 | 16.11° C | 79% | 1016.4 hPa | 0 mm | - | 44 W/m² | - |
| 1777474263 | 16.11° C | 79% | 1015.8 hPa | 0 mm | - | 78 W/m² | - |
| 1777473960 | 16.11° C | 79% | 1015.7 hPa | 0 mm | - | 122 W/m² | - |
| 1777473658 | 16.11° C | 78% | 1016 hPa | 0 mm | - | 98 W/m² | - |
| 1777473354 | 16.11° C | 78% | 1016.4 hPa | 0 mm | - | 52 W/m² | - |
| 1777473050 | 16.11° C | 78% | 1016 hPa | 0 mm | - | 63 W/m² | - |
| 1777472746 | 16.11° C | 78% | 1015.7 hPa | 0 mm | - | 50 W/m² | - |
| 1777472443 | 16.11° C | 78% | 1016 hPa | 0 mm | - | 32 W/m² | - |
| 1777472141 | 16.11° C | 78% | 1015.9 hPa | 0 mm | - | 58 W/m² | - |
| 1777471840 | 16.11° C | 77% | 1016 hPa | 0 mm | - | 39 W/m² | - |
| 1777471537 | 16.11° C | 77% | 1016.1 hPa | 0 mm | - | 31 W/m² | - |
| 1777471234 | 16.11° C | 77% | 1016.1 hPa | 0 mm | - | 29 W/m² | - |
| 1777470931 | 16.11° C | 77% | 1015.7 hPa | 0 mm | - | 32 W/m² | - |
| 1777470628 | 16.11° C | 76% | 1015.8 hPa | 0 mm | - | 24 W/m² | - |
| 1777470323 | 16.11° C | 76% | 1015.9 hPa | 0 mm | - | 26 W/m² | - |
| 1777470021 | 16.67° C | 76% | 1015.7 hPa | 0 mm | - | 31 W/m² | - |
| 1777469716 | 16.11° C | 76% | 1015.6 hPa | 0 mm | - | 40 W/m² | - |
| 1777469412 | 16.11° C | 75% | 1015.8 hPa | 0 mm | - | 27 W/m² | - |
| 1777469107 | 16.67° C | 75% | 1015.7 hPa | 0 mm | - | 29 W/m² | - |
| 1777468807 | 16.67° C | 75% | 1015.7 hPa | 0 mm | - | 25 W/m² | - |
| 1777468504 | 16.67° C | 74% | 1015.3 hPa | 0 mm | - | 28 W/m² | - |
* Rain latest hour (hover to see other rain measurements)
** Current wind speed in m/s (hover to see current wind gust speed)